sensor_id;sensor_type;location;lat;lon;timestamp;pressure;altitude;pressure_sealevel;temperature;humidity
5283;BME280;15376;48.540;9.268;2024-03-23T00:53:58;96832.69;;;6.49;100.00
5283;BME280;15376;48.540;9.268;2024-03-23T00:56:23;96818.31;;;6.52;100.00
5283;BME280;15376;48.540;9.268;2024-03-23T00:58:49;96817.41;;;6.67;100.00
5283;BME280;15376;48.540;9.268;2024-03-23T01:01:15;96818.19;;;6.76;100.00
5283;BME280;15376;48.540;9.268;2024-03-23T01:03:40;96812.31;;;6.66;100.00
5283;BME280;15376;48.540;9.268;2024-03-23T01:06:06;96816.47;;;6.83;100.00
5283;BME280;15376;48.540;9.268;2024-03-23T01:08:31;96804.66;;;6.79;100.00
5283;BME280;15376;48.540;9.268;2024-03-23T01:11:01;96818.41;;;6.66;100.00
5283;BME280;15376;48.540;9.268;2024-03-23T01:13:28;96807.69;;;6.68;100.00
5283;BME280;15376;48.540;9.268;2024-03-23T01:15:55;96810.97;;;6.70;100.00
5283;BME280;15376;48.540;9.268;2024-03-23T01:18:21;96815.66;;;6.60;100.00
5283;BME280;15376;48.540;9.268;2024-03-23T01:20:47;96795.72;;;6.57;100.00
5283;BME280;15376;48.540;9.268;2024-03-23T01:23:14;96804.06;;;6.69;100.00
5283;BME280;15376;48.540;9.268;2024-03-23T01:25:40;96792.81;;;6.75;100.00
5283;BME280;15376;48.540;9.268;2024-03-23T01:28:05;96789.81;;;6.78;100.00
5283;BME280;15376;48.540;9.268;2024-03-23T01:30:35;96787.78;;;6.80;100.00
5283;BME280;15376;48.540;9.268;2024-03-23T01:33:00;96770.56;;;6.69;100.00
5283;BME280;15376;48.540;9.268;2024-03-23T01:35:26;96776.00;;;6.45;100.00
5283;BME280;15376;48.540;9.268;2024-03-23T01:37:51;96775.78;;;6.32;100.00
5283;BME280;15376;48.540;9.268;2024-03-23T01:40:17;96777.50;;;6.17;100.00
5283;BME280;15376;48.540;9.268;2024-03-23T01:42:42;96774.31;;;6.29;100.00
5283;BME280;15376;48.540;9.268;2024-03-23T01:45:08;96771.91;;;6.43;100.00
5283;BME280;15376;48.540;9.268;2024-03-23T01:47:35;96768.03;;;6.53;100.00
5283;BME280;15376;48.540;9.268;2024-03-23T01:50:00;96755.81;;;6.60;100.00
5283;BME280;15376;48.540;9.268;2024-03-23T01:52:29;96756.28;;;6.64;100.00
5283;BME280;15376;48.540;9.268;2024-03-23T01:54:55;96763.25;;;6.57;100.00
5283;BME280;15376;48.540;9.268;2024-03-23T01:57:21;96746.06;;;6.61;100.00
5283;BME280;15376;48.540;9.268;2024-03-23T01:59:47;96742.78;;;6.59;100.00
5283;BME280;15376;48.540;9.268;2024-03-23T02:02:12;96741.72;;;6.68;100.00
5283;BME280;15376;48.540;9.268;2024-03-23T02:04:38;96734.88;;;6.59;100.00
5283;BME280;15376;48.540;9.268;2024-03-23T02:07:04;96745.09;;;6.39;100.00
5283;BME280;15376;48.540;9.268;2024-03-23T02:09:31;96740.50;;;6.33;100.00
5283;BME280;15376;48.540;9.268;2024-03-23T02:11:57;96726.31;;;6.57;100.00
5283;BME280;15376;48.540;9.268;2024-03-23T02:14:22;96730.47;;;6.51;100.00
5283;BME280;15376;48.540;9.268;2024-03-23T02:16:47;96720.09;;;6.50;100.00
5283;BME280;15376;48.540;9.268;2024-03-23T02:19:13;96723.72;;;6.72;100.00
5283;BME280;15376;48.540;9.268;2024-03-23T02:21:38;96713.69;;;7.05;100.00
5283;BME280;15376;48.540;9.268;2024-03-23T02:24:03;96699.72;;;7.19;100.00
5283;BME280;15376;48.540;9.268;2024-03-23T02:26:29;96699.50;;;7.35;100.00
5283;BME280;15376;48.540;9.268;2024-03-23T02:28:54;96694.59;;;7.32;100.00
5283;BME280;15376;48.540;9.268;2024-03-23T02:31:19;96685.94;;;7.23;100.00
5283;BME280;15376;48.540;9.268;2024-03-23T02:33:45;96676.13;;;7.17;100.00
5283;BME280;15376;48.540;9.268;2024-03-23T02:36:10;96682.75;;;7.13;100.00
5283;BME280;15376;48.540;9.268;2024-03-23T02:38:35;96650.50;;;6.88;100.00
5283;BME280;15376;48.540;9.268;2024-03-23T02:41:03;96672.91;;;6.92;100.00
5283;BME280;15376;48.540;9.268;2024-03-23T02:43:29;96688.66;;;7.00;100.00
5283;BME280;15376;48.540;9.268;2024-03-23T02:45:54;96680.28;;;6.97;100.00
5283;BME280;15376;48.540;9.268;2024-03-23T02:48:19;96679.47;;;7.11;100.00
5283;BME280;15376;48.540;9.268;2024-03-23T02:50:45;96683.66;;;7.20;100.00
5283;BME280;15376;48.540;9.268;2024-03-23T02:53:10;96681.22;;;7.19;100.00
5283;BME280;15376;48.540;9.268;2024-03-23T02:55:35;96672.91;;;7.22;100.00
5283;BME280;15376;48.540;9.268;2024-03-23T02:58:01;96684.75;;;7.41;100.00
5283;BME280;15376;48.540;9.268;2024-03-23T03:00:27;96683.84;;;7.48;100.00
5283;BME280;15376;48.540;9.268;2024-03-23T03:02:53;96673.19;;;7.42;100.00
5283;BME280;15376;48.540;9.268;2024-03-23T03:05:18;96685.13;;;7.52;100.00
5283;BME280;15376;48.540;9.268;2024-03-23T03:07:43;96655.81;;;7.47;100.00
5283;BME280;15376;48.540;9.268;2024-03-23T03:10:09;96669.31;;;7.74;100.00
5283;BME280;15376;48.540;9.268;2024-03-23T03:12:36;96671.88;;;7.82;100.00
5283;BME280;15376;48.540;9.268;2024-03-23T03:15:03;96667.84;;;7.86;100.00
5283;BME280;15376;48.540;9.268;2024-03-23T03:17:28;96665.22;;;7.86;100.00
5283;BME280;15376;48.540;9.268;2024-03-23T03:19:54;96657.31;;;7.71;100.00
5283;BME280;15376;48.540;9.268;2024-03-23T03:22:21;96662.78;;;7.69;100.00
5283;BME280;15376;48.540;9.268;2024-03-23T03:24:47;96666.22;;;7.70;100.00
5283;BME280;15376;48.540;9.268;2024-03-23T03:27:12;96639.72;;;7.63;100.00
5283;BME280;15376;48.540;9.268;2024-03-23T03:29:37;96668.31;;;7.75;100.00
5283;BME280;15376;48.540;9.268;2024-03-23T03:32:03;96660.56;;;7.73;100.00
5283;BME280;15376;48.540;9.268;2024-03-23T03:34:29;96663.03;;;7.75;100.00
5283;BME280;15376;48.540;9.268;2024-03-23T03:36:54;96664.50;;;7.77;100.00
5283;BME280;15376;48.540;9.268;2024-03-23T03:39:19;96662.41;;;7.73;100.00
5283;BME280;15376;48.540;9.268;2024-03-23T03:41:45;96675.16;;;7.69;100.00
5283;BME280;15376;48.540;9.268;2024-03-23T03:44:10;96659.34;;;7.54;100.00
5283;BME280;15376;48.540;9.268;2024-03-23T03:46:36;96664.00;;;7.52;100.00
5283;BME280;15376;48.540;9.268;2024-03-23T03:49:01;96648.78;;;7.54;100.00
5283;BME280;15376;48.540;9.268;2024-03-23T03:51:26;96649.44;;;7.78;100.00
5283;BME280;15376;48.540;9.268;2024-03-23T03:53:52;96630.13;;;7.77;100.00
5283;BME280;15376;48.540;9.268;2024-03-23T03:56:17;96627.56;;;7.84;100.00
5283;BME280;15376;48.540;9.268;2024-03-23T03:58:42;96616.81;;;7.85;100.00
5283;BME280;15376;48.540;9.268;2024-03-23T04:01:08;96603.06;;;7.75;100.00
5283;BME280;15376;48.540;9.268;2024-03-23T04:03:34;96602.97;;;7.83;100.00
5283;BME280;15376;48.540;9.268;2024-03-23T04:05:59;96611.06;;;7.82;100.00
5283;BME280;15376;48.540;9.268;2024-03-23T04:08:24;96596.13;;;7.89;100.00
5283;BME280;15376;48.540;9.268;2024-03-23T04:10:50;96585.38;;;8.33;100.00
5283;BME280;15376;48.540;9.268;2024-03-23T04:13:15;96566.09;;;8.39;100.00
5283;BME280;15376;48.540;9.268;2024-03-23T04:15:41;96568.22;;;8.85;100.00
5283;BME280;15376;48.540;9.268;2024-03-23T04:18:07;96546.78;;;9.21;100.00
5283;BME280;15376;48.540;9.268;2024-03-23T04:20:32;96552.03;;;9.49;100.00
5283;BME280;15376;48.540;9.268;2024-03-23T04:23:00;96537.75;;;9.63;100.00
5283;BME280;15376;48.540;9.268;2024-03-23T04:25:26;96536.63;;;9.92;100.00
5283;BME280;15376;48.540;9.268;2024-03-23T04:27:51;96516.22;;;10.19;100.00
5283;BME280;15376;48.540;9.268;2024-03-23T04:30:17;96503.56;;;10.14;100.00
5283;BME280;15376;48.540;9.268;2024-03-23T04:32:42;96491.53;;;10.05;100.00
5283;BME280;15376;48.540;9.268;2024-03-23T04:35:08;96479.50;;;10.09;100.00
5283;BME280;15376;48.540;9.268;2024-03-23T04:37:38;96497.66;;;10.52;100.00
5283;BME280;15376;48.540;9.268;2024-03-23T04:40:06;96482.13;;;10.62;100.00
5283;BME280;15376;48.540;9.268;2024-03-23T04:42:32;96464.34;;;10.69;100.00
5283;BME280;15376;48.540;9.268;2024-03-23T04:44:58;96489.72;;;11.10;100.00
5283;BME280;15376;48.540;9.268;2024-03-23T04:47:23;96482.91;;;11.20;100.00
5283;BME280;15376;48.540;9.268;2024-03-23T04:49:49;96485.81;;;11.19;100.00
5283;BME280;15376;48.540;9.268;2024-03-23T04:52:14;96475.63;;;11.16;100.00
5283;BME280;15376;48.540;9.268;2024-03-23T04:54:40;96474.94;;;11.20;100.00
5283;BME280;15376;48.540;9.268;2024-03-23T04:57:06;96462.88;;;11.24;100.00
5283;BME280;15376;48.540;9.268;2024-03-23T04:59:31;96456.13;;;11.22;100.00
5283;BME280;15376;48.540;9.268;2024-03-23T05:01:57;96467.50;;;11.42;100.00
5283;BME280;15376;48.540;9.268;2024-03-23T05:04:22;96472.22;;;11.40;100.00
5283;BME280;15376;48.540;9.268;2024-03-23T05:06:48;96459.19;;;11.25;100.00
5283;BME280;15376;48.540;9.268;2024-03-23T05:09:13;96462.75;;;11.51;99.62
5283;BME280;15376;48.540;9.268;2024-03-23T05:11:38;96466.41;;;11.56;99.16
5283;BME280;15376;48.540;9.268;2024-03-23T05:14:04;96489.22;;;11.64;99.30
5283;BME280;15376;48.540;9.268;2024-03-23T05:16:29;96472.22;;;11.40;100.00
5283;BME280;15376;48.540;9.268;2024-03-23T05:18:55;96493.91;;;11.37;100.00
5283;BME280;15376;48.540;9.268;2024-03-23T05:21:20;96465.13;;;11.21;100.00
5283;BME280;15376;48.540;9.268;2024-03-23T05:23:46;96490.56;;;11.10;100.00
5283;BME280;15376;48.540;9.268;2024-03-23T05:26:11;96501.41;;;10.95;100.00
5283;BME280;15376;48.540;9.268;2024-03-23T05:28:36;96517.78;;;10.92;100.00
5283;BME280;15376;48.540;9.268;2024-03-23T05:31:02;96526.81;;;10.72;100.00
5283;BME280;15376;48.540;9.268;2024-03-23T05:33:27;96532.56;;;10.55;100.00
5283;BME280;15376;48.540;9.268;2024-03-23T05:35:57;96549.75;;;10.40;100.00
5283;BME280;15376;48.540;9.268;2024-03-23T05:38:23;96539.06;;;10.13;100.00
5283;BME280;15376;48.540;9.268;2024-03-23T05:40:57;96592.72;;;10.09;100.00
5283;BME280;15376;48.540;9.268;2024-03-23T05:43:23;96607.59;;;9.83;100.00
5283;BME280;15376;48.540;9.268;2024-03-23T05:45:55;96656.69;;;9.73;100.00
5283;BME280;15376;48.540;9.268;2024-03-23T05:48:20;96669.44;;;9.49;100.00
5283;BME280;15376;48.540;9.268;2024-03-23T05:50:46;96652.16;;;9.25;100.00
5283;BME280;15376;48.540;9.268;2024-03-23T05:53:11;96679.28;;;9.27;100.00
5283;BME280;15376;48.540;9.268;2024-03-23T05:55:38;96693.31;;;9.21;100.00
5283;BME280;15376;48.540;9.268;2024-03-23T05:58:03;96681.69;;;9.16;100.00
5283;BME280;15376;48.540;9.268;2024-03-23T06:00:29;96687.94;;;9.08;100.00
5283;BME280;15376;48.540;9.268;2024-03-23T06:02:54;96696.47;;;9.03;100.00
5283;BME280;15376;48.540;9.268;2024-03-23T06:05:19;96704.97;;;8.99;100.00
5283;BME280;15376;48.540;9.268;2024-03-23T06:07:45;96695.91;;;8.87;100.00
5283;BME280;15376;48.540;9.268;2024-03-23T06:10:10;96715.69;;;8.91;100.00
5283;BME280;15376;48.540;9.268;2024-03-23T06:12:35;96714.25;;;8.88;100.00
5283;BME280;15376;48.540;9.268;2024-03-23T06:15:01;96727.31;;;8.90;100.00
5283;BME280;15376;48.540;9.268;2024-03-23T06:17:27;96716.44;;;8.78;100.00
5283;BME280;15376;48.540;9.268;2024-03-23T06:19:52;96728.03;;;8.77;100.00
5283;BME280;15376;48.540;9.268;2024-03-23T06:22:17;96745.56;;;8.78;100.00
5283;BME280;15376;48.540;9.268;2024-03-23T06:24:44;96716.03;;;8.60;100.00
5283;BME280;15376;48.540;9.268;2024-03-23T06:27:09;96745.94;;;8.75;100.00
5283;BME280;15376;48.540;9.268;2024-03-23T06:29:35;96751.22;;;8.75;100.00
5283;BME280;15376;48.540;9.268;2024-03-23T06:32:01;96749.31;;;8.69;100.00
5283;BME280;15376;48.540;9.268;2024-03-23T06:34:27;96769.94;;;8.74;100.00
5283;BME280;15376;48.540;9.268;2024-03-23T06:36:52;96775.78;;;8.69;100.00
5283;BME280;15376;48.540;9.268;2024-03-23T06:39:17;96781.47;;;8.66;100.00
5283;BME280;15376;48.540;9.268;2024-03-23T06:41:44;96773.81;;;8.56;100.00
5283;BME280;15376;48.540;9.268;2024-03-23T06:44:16;96771.88;;;8.65;100.00
5283;BME280;15376;48.540;9.268;2024-03-23T06:46:41;96790.47;;;8.72;100.00
5283;BME280;15376;48.540;9.268;2024-03-23T06:49:07;96793.50;;;8.68;100.00
5283;BME280;15376;48.540;9.268;2024-03-23T06:51:32;96802.00;;;8.64;100.00
5283;BME280;15376;48.540;9.268;2024-03-23T06:53:57;96812.69;;;8.56;100.00
5283;BME280;15376;48.540;9.268;2024-03-23T06:56:22;96819.38;;;8.52;100.00
5283;BME280;15376;48.540;9.268;2024-03-23T06:58:48;96824.13;;;8.42;100.00
5283;BME280;15376;48.540;9.268;2024-03-23T07:01:13;96828.53;;;8.34;100.00
5283;BME280;15376;48.540;9.268;2024-03-23T07:03:38;96803.91;;;8.19;100.00
5283;BME280;15376;48.540;9.268;2024-03-23T07:06:04;96820.31;;;8.29;100.00
5283;BME280;15376;48.540;9.268;2024-03-23T07:08:29;96827.78;;;8.26;100.00
5283;BME280;15376;48.540;9.268;2024-03-23T07:10:54;96829.53;;;8.19;100.00
5283;BME280;15376;48.540;9.268;2024-03-23T07:13:20;96811.91;;;8.11;100.00
5283;BME280;15376;48.540;9.268;2024-03-23T07:15:51;96813.94;;;8.09;100.00
5283;BME280;15376;48.540;9.268;2024-03-23T07:18:16;96836.28;;;8.21;100.00
5283;BME280;15376;48.540;9.268;2024-03-23T07:20:42;96846.84;;;8.21;100.00
5283;BME280;15376;48.540;9.268;2024-03-23T07:23:07;96841.47;;;8.29;100.00
5283;BME280;15376;48.540;9.268;2024-03-23T07:25:32;96830.16;;;8.21;100.00
5283;BME280;15376;48.540;9.268;2024-03-23T07:27:57;96860.75;;;8.38;100.00
5283;BME280;15376;48.540;9.268;2024-03-23T07:30:23;96855.22;;;8.54;100.00
5283;BME280;15376;48.540;9.268;2024-03-23T07:32:48;96873.72;;;8.69;100.00
5283;BME280;15376;48.540;9.268;2024-03-23T07:35:14;96862.97;;;8.56;100.00
5283;BME280;15376;48.540;9.268;2024-03-23T07:37:39;96880.47;;;8.72;100.00
5283;BME280;15376;48.540;9.268;2024-03-23T07:40:05;96874.38;;;8.56;100.00
5283;BME280;15376;48.540;9.268;2024-03-23T07:42:31;96885.94;;;8.70;100.00
5283;BME280;15376;48.540;9.268;2024-03-23T07:44:56;96881.13;;;8.74;100.00
5283;BME280;15376;48.540;9.268;2024-03-23T07:47:22;96881.75;;;8.76;100.00
5283;BME280;15376;48.540;9.268;2024-03-23T07:49:47;96904.50;;;8.91;100.00
5283;BME280;15376;48.540;9.268;2024-03-23T07:52:13;96893.47;;;8.88;100.00
5283;BME280;15376;48.540;9.268;2024-03-23T07:54:38;96896.56;;;8.91;100.00
5283;BME280;15376;48.540;9.268;2024-03-23T07:57:04;96904.56;;;8.77;100.00
5283;BME280;15376;48.540;9.268;2024-03-23T07:59:29;96915.44;;;8.67;100.00
5283;BME280;15376;48.540;9.268;2024-03-23T08:01:57;96909.03;;;8.76;100.00
5283;BME280;15376;48.540;9.268;2024-03-23T08:04:22;96920.88;;;8.80;100.00
5283;BME280;15376;48.540;9.268;2024-03-23T08:06:47;96932.44;;;8.94;100.00
5283;BME280;15376;48.540;9.268;2024-03-23T08:09:13;96914.06;;;8.71;100.00
5283;BME280;15376;48.540;9.268;2024-03-23T08:11:38;96914.06;;;8.71;100.00
5283;BME280;15376;48.540;9.268;2024-03-23T08:14:04;96943.81;;;8.73;100.00
5283;BME280;15376;48.540;9.268;2024-03-23T08:16:29;96937.06;;;8.56;100.00
5283;BME280;15376;48.540;9.268;2024-03-23T08:18:55;96976.38;;;8.44;100.00
5283;BME280;15376;48.540;9.268;2024-03-23T08:21:23;96966.69;;;8.22;100.00
5283;BME280;15376;48.540;9.268;2024-03-23T08:23:50;96993.25;;;8.28;100.00
5283;BME280;15376;48.540;9.268;2024-03-23T08:26:16;97006.78;;;8.33;100.00
5283;BME280;15376;48.540;9.268;2024-03-23T08:28:43;97023.84;;;8.46;100.00
5283;BME280;15376;48.540;9.268;2024-03-23T08:31:10;97010.63;;;8.60;100.00
5283;BME280;15376;48.540;9.268;2024-03-23T08:33:36;97008.41;;;8.93;100.00
5283;BME280;15376;48.540;9.268;2024-03-23T08:36:06;96991.34;;;9.32;100.00
5283;BME280;15376;48.540;9.268;2024-03-23T08:38:32;96998.06;;;9.49;100.00
5283;BME280;15376;48.540;9.268;2024-03-23T08:40:58;97028.97;;;9.42;100.00
5283;BME280;15376;48.540;9.268;2024-03-23T08:43:24;97041.78;;;9.24;100.00
5283;BME280;15376;48.540;9.268;2024-03-23T08:45:50;97056.63;;;9.18;100.00
5283;BME280;15376;48.540;9.268;2024-03-23T08:48:15;97066.66;;;9.23;100.00
5283;BME280;15376;48.540;9.268;2024-03-23T08:50:41;97069.41;;;9.15;100.00
5283;BME280;15376;48.540;9.268;2024-03-23T08:53:06;97084.66;;;8.98;100.00
5283;BME280;15376;48.540;9.268;2024-03-23T08:55:32;97097.88;;;8.83;97.58
5283;BME280;15376;48.540;9.268;2024-03-23T08:57:57;97097.34;;;8.73;95.22
5283;BME280;15376;48.540;9.268;2024-03-23T09:00:22;97068.03;;;8.60;94.47
5283;BME280;15376;48.540;9.268;2024-03-23T09:02:48;97092.06;;;9.02;96.84
5283;BME280;15376;48.540;9.268;2024-03-23T09:05:13;97105.59;;;9.08;93.46
5283;BME280;15376;48.540;9.268;2024-03-23T09:07:39;97113.69;;;9.21;92.88
5283;BME280;15376;48.540;9.268;2024-03-23T09:10:04;97106.66;;;9.43;93.42
5283;BME280;15376;48.540;9.268;2024-03-23T09:12:30;97108.28;;;9.58;91.29
5283;BME280;15376;48.540;9.268;2024-03-23T09:14:55;97113.38;;;9.96;88.61
5283;BME280;15376;48.540;9.268;2024-03-23T09:17:20;97112.56;;;10.17;89.69
5283;BME280;15376;48.540;9.268;2024-03-23T09:19:46;97108.94;;;9.82;87.98
5283;BME280;15376;48.540;9.268;2024-03-23T09:22:11;97089.41;;;9.68;88.95
5283;BME280;15376;48.540;9.268;2024-03-23T09:24:38;97118.25;;;9.56;87.49
5283;BME280;15376;48.540;9.268;2024-03-23T09:27:04;97126.47;;;9.32;88.00
5283;BME280;15376;48.540;9.268;2024-03-23T09:29:29;97111.81;;;9.15;86.27
5283;BME280;15376;48.540;9.268;2024-03-23T09:31:54;97119.91;;;9.28;86.89
5283;BME280;15376;48.540;9.268;2024-03-23T09:34:20;97095.34;;;9.05;86.54
5283;BME280;15376;48.540;9.268;2024-03-23T09:36:46;97119.09;;;9.78;84.02
5283;BME280;15376;48.540;9.268;2024-03-23T09:39:12;97113.78;;;10.57;83.85
5283;BME280;15376;48.540;9.268;2024-03-23T09:41:39;97097.34;;;11.02;80.52
5283;BME280;15376;48.540;9.268;2024-03-23T09:44:05;97105.94;;;11.87;76.12
5283;BME280;15376;48.540;9.268;2024-03-23T09:46:31;97087.38;;;12.46;75.22
5283;BME280;15376;48.540;9.268;2024-03-23T09:48:59;97069.56;;;12.40;70.76
5283;BME280;15376;48.540;9.268;2024-03-23T09:51:25;97073.19;;;13.05;69.06
5283;BME280;15376;48.540;9.268;2024-03-23T09:53:52;97091.59;;;14.22;69.14
5283;BME280;15376;48.540;9.268;2024-03-23T09:56:18;97094.03;;;15.23;63.27
5283;BME280;15376;48.540;9.268;2024-03-23T09:58:43;97085.91;;;13.10;66.20
5283;BME280;15376;48.540;9.268;2024-03-23T10:01:09;97103.53;;;13.24;67.67
5283;BME280;15376;48.540;9.268;2024-03-23T10:03:46;97098.00;;;13.77;68.06
5283;BME280;15376;48.540;9.268;2024-03-23T10:06:12;97114.44;;;12.76;67.81
5283;BME280;15376;48.540;9.268;2024-03-23T10:08:37;97120.72;;;11.14;70.92
5283;BME280;15376;48.540;9.268;2024-03-23T10:11:15;97102.25;;;9.86;76.21
5283;BME280;15376;48.540;9.268;2024-03-23T10:13:42;97107.69;;;9.78;78.78
5283;BME280;15376;48.540;9.268;2024-03-23T10:16:08;97095.53;;;10.75;83.76
5283;BME280;15376;48.540;9.268;2024-03-23T10:18:43;97081.63;;;11.08;79.12
5283;BME280;15376;48.540;9.268;2024-03-23T10:21:09;97112.16;;;11.59;80.09
5283;BME280;15376;48.540;9.268;2024-03-23T10:23:37;97076.84;;;11.79;73.71
5283;BME280;15376;48.540;9.268;2024-03-23T10:26:19;97081.41;;;13.17;74.63
5283;BME280;15376;48.540;9.268;2024-03-23T10:29:05;97094.44;;;14.27;67.14
5283;BME280;15376;48.540;9.268;2024-03-23T10:31:34;97102.22;;;13.53;66.23
5283;BME280;15376;48.540;9.268;2024-03-23T10:34:02;97088.13;;;13.32;65.29
5283;BME280;15376;48.540;9.268;2024-03-23T10:36:29;97101.13;;;14.05;65.22
5283;BME280;15376;48.540;9.268;2024-03-23T10:38:55;97096.66;;;14.30;64.80
5283;BME280;15376;48.540;9.268;2024-03-23T10:41:31;97092.75;;;15.26;60.33
5283;BME280;15376;48.540;9.268;2024-03-23T10:43:57;97106.16;;;15.44;60.42
5283;BME280;15376;48.540;9.268;2024-03-23T10:46:23;97089.38;;;14.13;59.75
5283;BME280;15376;48.540;9.268;2024-03-23T10:48:49;97089.78;;;14.48;59.18
5283;BME280;15376;48.540;9.268;2024-03-23T10:51:14;97091.81;;;13.25;60.74
5283;BME280;15376;48.540;9.268;2024-03-23T10:53:40;97085.56;;;12.73;65.81
5283;BME280;15376;48.540;9.268;2024-03-23T10:56:06;97079.13;;;13.14;65.48
5283;BME280;15376;48.540;9.268;2024-03-23T10:58:38;97067.94;;;12.32;65.46
5283;BME280;15376;48.540;9.268;2024-03-23T11:01:04;97076.97;;;11.57;66.50
5283;BME280;15376;48.540;9.268;2024-03-23T11:03:36;97091.09;;;11.17;68.71
5283;BME280;15376;48.540;9.268;2024-03-23T11:06:03;97132.41;;;10.42;71.85
5283;BME280;15376;48.540;9.268;2024-03-23T11:08:33;97191.41;;;7.45;88.51
5283;BME280;15376;48.540;9.268;2024-03-23T11:11:17;97204.25;;;6.28;100.00
5283;BME280;15376;48.540;9.268;2024-03-23T11:13:51;97205.91;;;5.79;100.00
5283;BME280;15376;48.540;9.268;2024-03-23T11:18:46;97205.38;;;5.67;100.00
5283;BME280;15376;48.540;9.268;2024-03-23T11:24:15;97179.19;;;6.56;100.00
5283;BME280;15376;48.540;9.268;2024-03-23T11:26:41;97196.78;;;7.13;100.00
5283;BME280;15376;48.540;9.268;2024-03-23T11:29:13;97198.75;;;7.66;100.00
5283;BME280;15376;48.540;9.268;2024-03-23T11:31:45;97165.94;;;7.52;100.00
5283;BME280;15376;48.540;9.268;2024-03-23T11:34:11;97194.41;;;8.04;100.00
5283;BME280;15376;48.540;9.268;2024-03-23T11:36:36;97187.34;;;8.27;100.00
5283;BME280;15376;48.540;9.268;2024-03-23T11:39:18;97181.03;;;8.37;100.00
5283;BME280;15376;48.540;9.268;2024-03-23T11:41:53;97196.75;;;8.30;100.00
5283;BME280;15376;48.540;9.268;2024-03-23T11:44:20;97193.69;;;8.18;100.00
5283;BME280;15376;48.540;9.268;2024-03-23T11:46:46;97197.31;;;7.94;99.58
5283;BME280;15376;48.540;9.268;2024-03-23T11:49:28;97195.81;;;7.92;97.72
5283;BME280;15376;48.540;9.268;2024-03-23T11:51:55;97181.78;;;7.91;98.85
5283;BME280;15376;48.540;9.268;2024-03-23T11:54:25;97183.50;;;8.07;95.48
5283;BME280;15376;48.540;9.268;2024-03-23T11:56:55;97193.94;;;8.31;95.53
5283;BME280;15376;48.540;9.268;2024-03-23T11:59:39;97193.34;;;8.21;92.77
5283;BME280;15376;48.540;9.268;2024-03-23T12:02:12;97192.63;;;8.27;92.36
5283;BME280;15376;48.540;9.268;2024-03-23T12:04:41;97193.19;;;8.15;90.29
5283;BME280;15376;48.540;9.268;2024-03-23T12:09:35;97192.69;;;7.88;90.29
5283;BME280;15376;48.540;9.268;2024-03-23T12:12:09;97182.34;;;7.79;88.08
5283;BME280;15376;48.540;9.268;2024-03-23T12:14:34;97195.63;;;7.62;86.54
5283;BME280;15376;48.540;9.268;2024-03-23T12:17:13;97175.94;;;7.65;90.64
5283;BME280;15376;48.540;9.268;2024-03-23T12:19:40;97161.53;;;7.76;90.30
5283;BME280;15376;48.540;9.268;2024-03-23T12:22:07;97180.97;;;8.14;89.45
5283;BME280;15376;48.540;9.268;2024-03-23T12:24:34;97186.75;;;8.17;86.82
5283;BME280;15376;48.540;9.268;2024-03-23T12:27:03;97187.91;;;8.15;86.87
5283;BME280;15376;48.540;9.268;2024-03-23T12:29:30;97180.97;;;8.14;88.44
5283;BME280;15376;48.540;9.268;2024-03-23T12:31:59;97192.88;;;8.41;88.73
5283;BME280;15376;48.540;9.268;2024-03-23T12:34:25;97186.31;;;8.37;87.54
5283;BME280;15376;48.540;9.268;2024-03-23T12:36:50;97201.22;;;8.29;89.75
5283;BME280;15376;48.540;9.268;2024-03-23T12:39:15;97192.94;;;8.01;89.09
5283;BME280;15376;48.540;9.268;2024-03-23T12:41:41;97186.25;;;7.91;90.54
5283;BME280;15376;48.540;9.268;2024-03-23T12:44:06;97173.38;;;7.57;90.61
5283;BME280;15376;48.540;9.268;2024-03-23T12:46:33;97173.59;;;7.39;91.12
5283;BME280;15376;48.540;9.268;2024-03-23T12:48:58;97183.56;;;7.60;92.43
5283;BME280;15376;48.540;9.268;2024-03-23T12:51:24;97182.84;;;8.05;92.50
5283;BME280;15376;48.540;9.268;2024-03-23T12:53:50;97175.41;;;8.40;93.20
5283;BME280;15376;48.540;9.268;2024-03-23T12:56:16;97175.84;;;8.66;93.21
5283;BME280;15376;48.540;9.268;2024-03-23T12:58:41;97171.13;;;8.30;91.99
5283;BME280;15376;48.540;9.268;2024-03-23T13:01:06;97176.44;;;8.53;91.05
5283;BME280;15376;48.540;9.268;2024-03-23T13:03:32;97176.31;;;8.84;91.51
5283;BME280;15376;48.540;9.268;2024-03-23T13:05:57;97173.88;;;8.97;88.99
5283;BME280;15376;48.540;9.268;2024-03-23T13:08:22;97172.91;;;9.13;89.68
5283;BME280;15376;48.540;9.268;2024-03-23T13:10:51;97142.47;;;9.24;87.21
5283;BME280;15376;48.540;9.268;2024-03-23T13:13:17;97163.09;;;9.73;86.81
5283;BME280;15376;48.540;9.268;2024-03-23T13:15:42;97153.75;;;9.77;87.31
5283;BME280;15376;48.540;9.268;2024-03-23T13:18:07;97155.66;;;9.83;87.13
5283;BME280;15376;48.540;9.268;2024-03-23T13:20:35;97145.44;;;9.80;85.45
5283;BME280;15376;48.540;9.268;2024-03-23T13:23:01;97133.91;;;9.73;84.15
5283;BME280;15376;48.540;9.268;2024-03-23T13:25:26;97144.59;;;9.14;85.50
5283;BME280;15376;48.540;9.268;2024-03-23T13:27:52;97144.13;;;9.25;87.22
5283;BME280;15376;48.540;9.268;2024-03-23T13:30:17;97121.19;;;9.32;86.56
5283;BME280;15376;48.540;9.268;2024-03-23T13:32:42;97128.84;;;9.27;86.70
5283;BME280;15376;48.540;9.268;2024-03-23T13:35:07;97125.56;;;8.95;90.04
5283;BME280;15376;48.540;9.268;2024-03-23T13:37:33;97127.84;;;8.46;94.49
5283;BME280;15376;48.540;9.268;2024-03-23T13:39:59;97134.53;;;7.88;95.54
5283;BME280;15376;48.540;9.268;2024-03-23T13:42:24;97127.69;;;7.40;94.29
5283;BME280;15376;48.540;9.268;2024-03-23T13:44:51;97117.41;;;7.14;95.82
5283;BME280;15376;48.540;9.268;2024-03-23T13:47:16;97114.63;;;6.99;93.71
5283;BME280;15376;48.540;9.268;2024-03-23T13:49:41;97109.34;;;6.99;95.14
5283;BME280;15376;48.540;9.268;2024-03-23T13:52:07;97102.78;;;6.95;93.29
5283;BME280;15376;48.540;9.268;2024-03-23T13:54:32;97086.28;;;6.93;95.14
5283;BME280;15376;48.540;9.268;2024-03-23T13:56:58;97092.81;;;7.14;91.87
5283;BME280;15376;48.540;9.268;2024-03-23T13:59:23;97083.41;;;7.50;94.37
5283;BME280;15376;48.540;9.268;2024-03-23T14:01:49;97097.50;;;7.65;93.04
5283;BME280;15376;48.540;9.268;2024-03-23T14:04:16;97105.00;;;7.85;93.40
5283;BME280;15376;48.540;9.268;2024-03-23T14:06:49;97094.72;;;7.90;92.88
5283;BME280;15376;48.540;9.268;2024-03-23T14:09:14;97111.91;;;8.09;93.24